Owosso, MI

9:02 AM EDT on May 28, 2017 (GMT -0400)
Owosso

Weather History for KRNP - December, 2012

Change the Weather History Date:

Thursday, December 20, 2012

  Actual Average (KFNT) Record (KFNT)
Temperature  
Mean Temperature 40 °F -  
Max Temperature 45 °F 32 °F 59 °F (1957)
Min Temperature 34 °F 20 °F -8 °F (1954)
Degree Days  
Heating Degree Days 26    
Moisture  
Dew Point 37 °F    
Average Humidity 87    
Maximum Humidity 93    
Minimum Humidity 74    
Precipitation  
Precipitation 0.00 in - - ()
Sea Level Pressure  
Sea Level Pressure 29.50 in    
Wind  
Wind Speed 11 mph (ESE)    
Max Wind Speed 23 mph    
Max Gust Speed 33 mph    
Visibility 6 miles    
Events Rain , Snow    
Averages and records for this station are not official NWS values.
T = Trace of Precipitation, MM = Missing Value Source: NWS Daily Summary

Daily Weather History Graph

Daily Weather History Graph

Search for Another Location

Airport or City:

Trip Planner

Search our weather history database for the weather conditions in past years. The results will help you decide how hot, cold, wet, or windy it might be!

Date:

Astronomy

Dec. 20, 2012 Rise Set
Actual Time 8:04 AM EST 5:04 PM EST
Civil Twilight 7:31 AM EST 5:37 PM EST
Nautical Twilight 6:55 AM EST 6:12 PM EST
Astronomical Twilight 6:21 AM EST 6:47 PM EST
Moon 12:29 PM EST (12/20) 12:42 AM EST (12/20)
Length of Visible Light 10h 05m
Length of Day
9h 00m
First Quarter, 55% of the Moon is Illuminated
Dec 20
First Quarter
Dec 28
Full
Jan 4
Last Quarter
Jan 11
New
Jan 18
First Quarter

Hourly Weather History & Observations

Time (EST) Temp. Windchill Dew Point Humidity Pressure Visibility Wind Dir Wind Speed Gust Speed Precip Events Conditions
12:15 AM 35.8 °F 33.0 °F 32.2 °F 87% 30.06 in 5.0 mi ESE 3.5 mph - N/A   Mostly Cloudy
12:35 AM 35.6 °F 31.7 °F 32.0 °F 87% 30.04 in 5.0 mi ESE 4.6 mph - N/A   Mostly Cloudy
1:15 AM 35.8 °F 30.1 °F 32.2 °F 87% 30.04 in 5.0 mi SE 6.9 mph - N/A   Overcast
1:35 AM 35.8 °F 30.1 °F 32.2 °F 87% 30.01 in 5.0 mi East 6.9 mph - N/A   Overcast
1:55 AM 35.8 °F 30.1 °F 32.2 °F 87% 29.99 in 5.0 mi ESE 6.9 mph - N/A   Overcast
2:35 AM 36.0 °F 29.6 °F 32.2 °F 86% 29.99 in 5.0 mi East 8.1 mph - N/A   Overcast
2:55 AM 36.1 °F 29.9 °F 32.4 °F 86% 29.99 in 5.0 mi SE 8.1 mph - N/A   Overcast
3:15 AM 35.4 °F 28.4 °F 32.2 °F 88% 29.98 in 4.0 mi ESE 9.2 mph - N/A Snow Light Snow
3:35 AM 34.7 °F 28.1 °F 32.2 °F 91% 29.96 in 3.0 mi East 8.1 mph - N/A Snow Light Snow
3:55 AM 34.7 °F 27.5 °F 32.5 °F 92% 29.93 in 2.5 mi East 9.2 mph - N/A Snow Light Snow
4:14 AM 34.7 °F 26.9 °F 32.9 °F 93% 29.90 in 4.0 mi East 10.4 mph - N/A   Overcast
4:35 AM 35.6 °F 27.1 °F 33.8 °F 93% 29.87 in 5.0 mi East 12.7 mph 17.3 mph N/A   Overcast
4:55 AM 36.1 °F 28.2 °F 33.8 °F 91% 29.85 in 5.0 mi ENE 11.5 mph - N/A   Overcast
5:15 AM 36.7 °F 32.0 °F 34.2 °F 91% 29.90 in 5.0 mi ESE 5.8 mph - N/A   Overcast
5:35 AM 36.7 °F - 34.2 °F 91% 29.89 in 5.0 mi Calm Calm - N/A   Overcast
5:55 AM 36.9 °F 32.2 °F 34.7 °F 92% 29.88 in 5.0 mi East 5.8 mph - N/A   Overcast
6:15 AM 38.1 °F 29.8 °F 35.1 °F 89% 29.85 in 7.0 mi East 13.8 mph - N/A   Overcast
6:35 AM 38.7 °F 30.5 °F 34.9 °F 86% 29.84 in 7.0 mi ESE 13.8 mph 20.7 mph N/A   Overcast
6:55 AM 38.8 °F 30.4 °F 34.7 °F 85% 29.81 in 7.0 mi East 15.0 mph 21.9 mph N/A   Overcast
7:15 AM 39.0 °F 30.6 °F 34.7 °F 84% 29.78 in 7.0 mi East 15.0 mph 18.4 mph N/A   Overcast
7:34 AM 38.8 °F 30.4 °F 34.7 °F 85% 29.73 in 7.0 mi East 15.0 mph 19.6 mph N/A   Overcast
7:55 AM 38.7 °F 30.5 °F 34.7 °F 86% 29.72 in 7.0 mi East 13.8 mph 19.6 mph N/A   Overcast
8:15 AM 38.7 °F 30.5 °F 35.2 °F 87% 29.69 in 4.0 mi East 13.8 mph 24.2 mph N/A   Unknown
8:35 AM 38.7 °F 29.8 °F 35.4 °F 88% 29.69 in 7.0 mi East 16.1 mph 23.0 mph N/A   Overcast
8:55 AM 38.8 °F 30.0 °F 35.6 °F 88% 29.67 in 7.0 mi East 16.1 mph 20.7 mph N/A   Overcast
9:15 AM 39.2 °F 30.5 °F 35.4 °F 86% 29.65 in 7.0 mi East 16.1 mph 21.9 mph N/A   Overcast
9:35 AM 39.6 °F 30.6 °F 35.2 °F 85% 29.62 in 7.0 mi East 17.3 mph 24.2 mph N/A   Overcast
9:55 AM 40.1 °F 31.0 °F 34.7 °F 81% 29.62 in 10.0 mi East 18.4 mph 25.3 mph N/A   Overcast
10:14 AM 40.1 °F 31.6 °F 34.3 °F 80% 29.59 in 10.0 mi East 16.1 mph 24.2 mph N/A   Overcast
10:35 AM 40.1 °F 32.7 °F 34.5 °F 80% 29.60 in 4.0 mi East 12.7 mph 24.2 mph N/A   Unknown
10:55 AM 40.1 °F 32.4 °F 35.1 °F 82% 29.58 in 3.0 mi ESE 13.8 mph - N/A   Unknown
11:14 AM 40.1 °F 32.0 °F 35.6 °F 84% 29.56 in 4.0 mi East 15.0 mph 24.2 mph N/A   Unknown
11:35 AM 39.7 °F 29.7 °F 35.8 °F 86% 29.52 in 2.5 mi East 21.9 mph 28.8 mph N/A   Unknown
11:55 AM 39.7 °F 30.9 °F 36.1 °F 87% 29.51 in 2.5 mi ESE 17.3 mph 28.8 mph N/A   Unknown
12:15 PM 39.7 °F 30.3 °F 36.5 °F 88% 29.48 in 3.0 mi ESE 19.6 mph 29.9 mph N/A   Unknown
12:35 PM 40.1 °F 31.0 °F 36.7 °F 88% 29.45 in 3.0 mi ESE 18.4 mph 26.5 mph N/A   Unknown
12:54 PM 40.1 °F 29.9 °F 37.0 °F 89% 29.41 in 3.0 mi ESE 23.0 mph 31.1 mph N/A   Unknown
1:15 PM 40.3 °F 30.2 °F 37.4 °F 89% 29.38 in 5.0 mi ESE 23.0 mph 33.4 mph N/A   Overcast
1:35 PM 41.0 °F 31.1 °F 37.6 °F 88% 29.33 in 5.0 mi ESE 23.0 mph 29.9 mph N/A   Overcast
1:55 PM 41.0 °F 31.4 °F 38.7 °F 91% 29.30 in 7.0 mi ESE 21.9 mph 31.1 mph N/A   Overcast
2:15 PM 41.4 °F 32.1 °F 39.2 °F 92% 29.28 in 10.0 mi ESE 20.7 mph 31.1 mph N/A   Overcast
2:35 PM 41.9 °F 32.8 °F 39.4 °F 91% 29.25 in 10.0 mi ESE 20.7 mph 32.2 mph N/A   Overcast
2:55 PM 42.8 °F 33.8 °F 39.7 °F 89% 29.24 in 10.0 mi SE 21.9 mph 29.9 mph N/A   Overcast
3:15 PM 43.0 °F 36.0 °F 39.7 °F 88% 29.24 in 10.0 mi SE 13.8 mph 26.5 mph N/A   Overcast
3:35 PM 43.5 °F 35.2 °F 40.1 °F 88% 29.24 in 10.0 mi SE 19.6 mph 27.6 mph N/A   Overcast
3:55 PM 43.9 °F 35.9 °F 40.6 °F 88% 29.23 in 5.0 mi SE 18.4 mph 25.3 mph N/A Rain Light Rain
4:15 PM 44.1 °F 36.2 °F 41.2 °F 90% 29.22 in 4.0 mi SE 18.4 mph 25.3 mph N/A   Unknown
4:35 PM 44.1 °F 36.5 °F 41.5 °F 91% 29.19 in 3.0 mi ESE 17.3 mph 25.3 mph N/A   Unknown
4:55 PM 44.2 °F 37.3 °F 41.9 °F 91% 29.18 in 5.0 mi ESE 15.0 mph 27.6 mph N/A   Overcast
5:15 PM 44.2 °F 38.8 °F 41.9 °F 91% 29.17 in 5.0 mi SE 10.4 mph 24.2 mph N/A   Overcast
5:35 PM 44.6 °F 39.7 °F 41.9 °F 90% 29.16 in 4.0 mi ESE 9.2 mph - N/A   Unknown
5:54 PM 44.8 °F 38.7 °F 42.1 °F 90% 29.16 in 7.0 mi ESE 12.7 mph 18.4 mph N/A Rain Light Rain
6:15 PM 44.8 °F 38.3 °F 42.3 °F 91% 29.15 in 5.0 mi ESE 13.8 mph 19.6 mph N/A Rain Light Rain
6:35 PM 44.6 °F 39.2 °F 42.3 °F 91% 29.13 in 10.0 mi East 10.4 mph 16.1 mph N/A   Overcast
6:54 PM 44.6 °F 39.2 °F 42.3 °F 91% 29.12 in 5.0 mi East 10.4 mph - N/A Rain Light Rain
7:15 PM 45.0 °F 43.5 °F 42.8 °F 92% 29.12 in 7.0 mi SE 3.5 mph - N/A Rain Light Rain
7:34 PM 45.1 °F 42.8 °F 43.2 °F 93% 29.13 in 7.0 mi SSW 4.6 mph - N/A Rain Light Rain
7:55 PM 45.1 °F 42.8 °F 43.0 °F 92% 29.12 in 7.0 mi SSW 4.6 mph - N/A Rain Light Rain
8:15 PM 45.1 °F 38.4 °F 42.8 °F 91% 29.13 in 7.0 mi SSW 15.0 mph 21.9 mph N/A   Unknown
8:34 PM 44.6 °F 39.7 °F 42.1 °F 91% 29.14 in 5.0 mi SSW 9.2 mph 23.0 mph N/A   Unknown
8:55 PM 43.9 °F 38.8 °F 41.0 °F 90% 29.15 in 7.0 mi SSW 9.2 mph 16.1 mph N/A   Overcast
9:15 PM 43.5 °F 38.3 °F 40.3 °F 88% 29.15 in 5.0 mi SSW 9.2 mph - N/A   Unknown
9:35 PM 42.8 °F 35.8 °F 39.2 °F 87% 29.14 in 10.0 mi SSW 13.8 mph 19.6 mph N/A   Overcast
9:55 PM 41.7 °F 35.2 °F 37.2 °F 84% 29.16 in 10.0 mi SSW 11.5 mph - N/A   Overcast
10:14 PM 41.0 °F 35.8 °F 35.8 °F 82% 29.16 in 10.0 mi South 8.1 mph - N/A   Overcast
10:35 PM 40.6 °F 33.0 °F 34.7 °F 79% 29.16 in 10.0 mi South 13.8 mph 17.3 mph N/A   Overcast
10:55 PM 40.3 °F 33.4 °F 33.4 °F 77% 29.16 in 10.0 mi South 11.5 mph - N/A   Overcast
11:14 PM 39.7 °F 34.3 °F 32.5 °F 75% 29.15 in 10.0 mi South 8.1 mph 16.1 mph N/A   Overcast
11:35 PM 39.6 °F 32.5 °F 32.0 °F 74% 29.14 in 10.0 mi South 11.5 mph 17.3 mph N/A   Overcast
11:55 PM 39.2 °F 34.2 °F 31.6 °F 74% 29.15 in 10.0 mi South 6.9 mph - N/A   Overcast